createdAt,value
2022-09-02T00:01:49.288Z,20.10
2022-09-02T00:03:40.113Z,20.10
2022-09-02T00:05:30.888Z,19.90
2022-09-02T00:07:21.574Z,19.90
2022-09-02T00:09:18.312Z,19.90
2022-09-02T00:11:14.169Z,19.80
2022-09-02T00:13:06.981Z,19.80
2022-09-02T00:14:57.646Z,19.80
2022-09-02T00:16:48.507Z,19.70
2022-09-02T00:18:40.197Z,19.70
2022-09-02T00:20:35.049Z,19.60
2022-09-02T00:22:27.001Z,19.60
2022-09-02T00:24:19.376Z,19.60
2022-09-02T00:26:10.395Z,19.50
2022-09-02T00:28:01.598Z,19.50
2022-09-02T00:29:52.472Z,19.60
2022-09-02T00:31:43.941Z,19.60
2022-09-02T00:33:34.951Z,19.50
2022-09-02T00:35:25.774Z,19.50
2022-09-02T00:37:16.635Z,19.50
2022-09-02T00:39:07.648Z,19.40
2022-09-02T00:41:00.460Z,19.30
2022-09-02T00:42:52.103Z,19.20
2022-09-02T00:44:42.767Z,19.30
2022-09-02T00:46:33.870Z,19.30
2022-09-02T00:48:24.554Z,19.20
2022-09-02T00:50:18.678Z,19.20
2022-09-02T00:52:13.211Z,19.20
2022-09-02T00:54:04.958Z,19.30
2022-09-02T00:55:55.541Z,19.20
2022-09-02T00:57:50.079Z,19.10
2022-09-02T00:59:45.369Z,19.00
2022-09-02T01:01:36.097Z,18.90
2022-09-02T01:03:31.530Z,19.00
2022-09-02T01:05:24.224Z,18.90
2022-09-02T01:07:14.406Z,19.00
2022-09-02T01:09:10.059Z,18.80
2022-09-02T01:11:02.234Z,18.80
2022-09-02T01:13:00.075Z,18.80
2022-09-02T01:14:50.790Z,18.70
2022-09-02T01:16:43.314Z,18.80
2022-09-02T01:18:34.311Z,18.70
2022-09-02T01:20:26.084Z,18.70
2022-09-02T01:22:20.251Z,18.70
2022-09-02T01:24:11.058Z,18.70
2022-09-02T01:26:02.300Z,18.60
2022-09-02T01:27:52.742Z,18.60
2022-09-02T01:29:43.467Z,18.60
2022-09-02T01:31:34.506Z,18.50
2022-09-02T01:33:26.247Z,18.50
2022-09-02T01:35:17.854Z,18.50
2022-09-02T01:37:08.481Z,18.50
2022-09-02T01:39:00.089Z,18.50
2022-09-02T01:40:51.017Z,18.40
2022-09-02T01:42:42.633Z,18.40
2022-09-02T01:44:33.800Z,18.40
2022-09-02T01:46:24.510Z,18.40
2022-09-02T01:48:21.332Z,18.40
2022-09-02T01:50:12.491Z,18.50
2022-09-02T01:52:03.873Z,18.40
2022-09-02T01:53:54.126Z,18.30
2022-09-02T01:55:46.454Z,18.20
2022-09-02T01:57:37.300Z,18.10
2022-09-02T01:59:27.642Z,18.10
2022-09-02T02:01:17.933Z,18.00
2022-09-02T02:03:08.791Z,17.90
2022-09-02T02:05:00.101Z,18.00
2022-09-02T02:06:53.515Z,18.00
2022-09-02T02:08:45.724Z,18.00
2022-09-02T02:10:36.340Z,17.90
2022-09-02T02:12:28.340Z,17.90
2022-09-02T02:14:19.108Z,17.90
2022-09-02T02:16:10.478Z,17.90
2022-09-02T02:18:00.685Z,17.90
2022-09-02T02:19:51.021Z,17.90
2022-09-02T02:21:41.622Z,17.90
2022-09-02T02:23:32.137Z,17.90
2022-09-02T02:25:22.954Z,17.90
2022-09-02T02:27:13.782Z,17.90
2022-09-02T02:29:05.532Z,17.90
2022-09-02T02:30:56.273Z,18.00
2022-09-02T02:32:47.395Z,17.90
2022-09-02T02:34:37.679Z,17.80
2022-09-02T02:36:28.188Z,17.80
2022-09-02T02:38:18.233Z,17.80
2022-09-02T02:40:10.498Z,17.80
2022-09-02T02:42:01.173Z,17.80
2022-09-02T02:43:51.718Z,17.80
2022-09-02T02:45:43.609Z,18.00
2022-09-02T02:47:34.236Z,17.90
2022-09-02T02:49:24.805Z,17.90
2022-09-02T02:51:15.274Z,17.90
2022-09-02T02:53:05.638Z,17.90
2022-09-02T02:54:56.207Z,18.00
2022-09-02T02:56:46.882Z,17.90
2022-09-02T02:58:37.885Z,17.80
2022-09-02T03:00:30.526Z,17.80
2022-09-02T03:02:22.671Z,17.80
2022-09-02T03:04:13.424Z,17.80
2022-09-02T03:06:04.062Z,17.80
2022-09-02T03:07:54.990Z,17.80
2022-09-02T03:09:45.719Z,17.80
2022-09-02T03:11:36.239Z,17.80
2022-09-02T03:13:26.983Z,17.80
2022-09-02T03:15:20.703Z,17.80
2022-09-02T03:17:10.956Z,17.70
2022-09-02T03:19:03.375Z,17.80
2022-09-02T03:20:53.697Z,17.80
2022-09-02T03:22:44.430Z,17.80
2022-09-02T03:24:35.096Z,17.70
2022-09-02T03:26:25.739Z,17.60
2022-09-02T03:28:16.803Z,17.50
2022-09-02T03:30:09.627Z,17.60
2022-09-02T03:32:00.253Z,17.60
2022-09-02T03:33:53.676Z,17.50
2022-09-02T03:35:45.624Z,17.60
2022-09-02T03:37:36.644Z,17.60
2022-09-02T03:39:26.929Z,17.60
2022-09-02T03:41:17.281Z,17.60
2022-09-02T03:43:08.611Z,17.60
2022-09-02T03:44:58.752Z,17.60
2022-09-02T03:46:49.075Z,17.70
2022-09-02T03:48:39.449Z,17.70
2022-09-02T03:50:32.202Z,17.60
2022-09-02T03:52:24.432Z,17.60
2022-09-02T03:54:14.730Z,17.60
2022-09-02T03:56:06.805Z,17.50
2022-09-02T03:57:57.109Z,17.50
2022-09-02T03:59:47.896Z,17.60
2022-09-02T04:01:38.556Z,17.50
2022-09-02T04:03:29.398Z,17.50
2022-09-02T04:05:20.385Z,17.50
2022-09-02T04:07:10.797Z,17.50
2022-09-02T04:09:02.533Z,17.50
2022-09-02T04:10:52.833Z,17.50
2022-09-02T04:12:43.710Z,17.50
2022-09-02T04:14:34.302Z,17.50
2022-09-02T04:16:25.886Z,17.50
2022-09-02T04:18:17.114Z,17.50
2022-09-02T04:20:09.681Z,17.50
2022-09-02T04:22:00.299Z,17.50
2022-09-02T04:23:50.608Z,17.50
2022-09-02T04:25:43.699Z,17.50
2022-09-02T04:27:35.088Z,17.50
2022-09-02T04:29:25.402Z,17.50
2022-09-02T04:31:17.968Z,17.50
2022-09-02T04:33:08.235Z,17.60
2022-09-02T04:34:58.809Z,17.60
2022-09-02T04:36:49.345Z,17.50
2022-09-02T04:38:39.690Z,17.50
2022-09-02T04:40:30.626Z,17.60
2022-09-02T04:42:22.812Z,17.60
2022-09-02T04:44:13.163Z,17.60
2022-09-02T04:46:04.960Z,17.60
2022-09-02T04:47:55.996Z,17.70
2022-09-02T04:49:46.431Z,17.60
2022-09-02T04:51:37.334Z,17.70
2022-09-02T04:53:28.951Z,17.70
2022-09-02T04:55:19.274Z,17.70
2022-09-02T04:57:09.754Z,17.60
2022-09-02T04:59:01.724Z,17.60
2022-09-02T05:00:52.178Z,17.60
2022-09-02T05:02:42.719Z,17.50
2022-09-02T05:04:33.992Z,17.40
2022-09-02T05:06:26.147Z,17.40
2022-09-02T05:08:16.561Z,17.50
2022-09-02T05:10:08.237Z,17.60
2022-09-02T05:11:58.554Z,17.60
2022-09-02T05:13:50.659Z,17.60
2022-09-02T05:15:42.399Z,17.70
2022-09-02T05:17:32.919Z,17.50
2022-09-02T05:19:24.858Z,17.50
2022-09-02T05:21:15.772Z,17.40
2022-09-02T05:23:06.774Z,17.40
2022-09-02T05:24:57.774Z,17.40
2022-09-02T05:26:48.254Z,17.40
2022-09-02T05:28:39.184Z,17.30
2022-09-02T05:30:29.643Z,17.30
2022-09-02T05:32:21.390Z,17.30
2022-09-02T05:34:12.009Z,17.30
2022-09-02T05:36:03.551Z,17.30
2022-09-02T05:37:57.475Z,17.40
2022-09-02T05:39:51.696Z,17.40
2022-09-02T05:41:42.670Z,17.40
2022-09-02T05:43:35.595Z,17.40
2022-09-02T05:45:27.072Z,17.40
2022-09-02T05:47:17.914Z,17.40
2022-09-02T05:49:09.815Z,17.40
2022-09-02T05:51:04.351Z,17.40
2022-09-02T05:52:54.795Z,17.50
2022-09-02T05:54:45.488Z,17.60
2022-09-02T05:56:38.218Z,17.60
2022-09-02T05:58:28.694Z,17.60
2022-09-02T06:00:19.461Z,17.50
2022-09-02T06:02:11.102Z,17.60
2022-09-02T06:04:02.761Z,17.60
2022-09-02T06:05:56.152Z,17.60
2022-09-02T06:07:47.009Z,17.60
2022-09-02T06:09:37.830Z,17.70
2022-09-02T06:11:28.670Z,17.80
2022-09-02T06:13:19.216Z,17.80
2022-09-02T06:15:11.041Z,17.80
2022-09-02T06:17:01.660Z,17.90
2022-09-02T06:18:52.527Z,17.90
2022-09-02T06:20:44.212Z,17.90
2022-09-02T06:22:36.404Z,17.90
2022-09-02T06:24:28.087Z,18.00
2022-09-02T06:26:18.611Z,18.00
2022-09-02T06:28:09.767Z,18.10
2022-09-02T06:30:00.676Z,18.10
2022-09-02T06:31:51.665Z,18.20
2022-09-02T06:33:42.631Z,18.20
2022-09-02T06:35:37.546Z,18.30
2022-09-02T06:37:28.410Z,18.30
2022-09-02T06:39:22.270Z,18.30
2022-09-02T06:41:14.005Z,18.40
2022-09-02T06:43:04.495Z,18.40
2022-09-02T06:44:55.007Z,18.40
2022-09-02T06:46:47.044Z,18.40
2022-09-02T06:48:37.812Z,18.50
2022-09-02T06:50:28.260Z,18.50
2022-09-02T06:52:19.207Z,18.50
2022-09-02T06:54:11.261Z,18.40
2022-09-02T06:56:08.477Z,18.40
2022-09-02T06:57:58.798Z,18.40
2022-09-02T06:59:49.302Z,18.50
2022-09-02T07:01:40.346Z,18.60
2022-09-02T07:03:31.159Z,18.60
2022-09-02T07:05:21.900Z,18.70
2022-09-02T07:07:12.265Z,18.80
2022-09-02T07:09:03.325Z,18.80
2022-09-02T07:10:53.831Z,18.90
2022-09-02T07:12:45.513Z,18.90
2022-09-02T07:14:37.683Z,19.00
2022-09-02T07:16:28.514Z,19.00
2022-09-02T07:18:18.990Z,18.90
2022-09-02T07:20:10.265Z,19.00
2022-09-02T07:22:02.847Z,19.00
2022-09-02T07:23:53.434Z,19.00
2022-09-02T07:25:44.074Z,19.10
2022-09-02T07:27:35.250Z,19.10
2022-09-02T07:29:26.993Z,19.20
2022-09-02T07:31:18.458Z,19.20
2022-09-02T07:33:10.105Z,19.20
2022-09-02T07:35:01.013Z,19.30
2022-09-02T07:36:52.296Z,19.30
2022-09-02T07:38:43.790Z,19.40
2022-09-02T07:40:34.785Z,19.40
2022-09-02T07:42:25.528Z,19.50
2022-09-02T07:44:16.137Z,19.60
2022-09-02T07:46:08.097Z,19.70
2022-09-02T07:47:58.960Z,19.70
2022-09-02T07:52:00.524Z,19.80
2022-09-02T07:53:51.300Z,19.90
2022-09-02T07:55:43.249Z,20.00
2022-09-02T07:57:33.624Z,20.00
2022-09-02T07:59:24.365Z,20.00
2022-09-02T08:01:20.078Z,20.10
2022-09-02T08:03:14.519Z,20.10
2022-09-02T08:05:05.515Z,20.20
2022-09-02T08:06:56.089Z,20.20
2022-09-02T08:08:47.059Z,20.20
2022-09-02T08:10:38.706Z,20.30
2022-09-02T08:12:29.245Z,20.50
2022-09-02T08:14:21.629Z,20.60
2022-09-02T08:16:12.363Z,20.70
2022-09-02T08:18:05.139Z,20.70
2022-09-02T08:19:55.739Z,20.70
2022-09-02T08:21:46.120Z,20.80
2022-09-02T08:23:37.717Z,20.80
2022-09-02T08:25:28.484Z,20.80
2022-09-02T08:27:18.820Z,20.80
2022-09-02T08:29:09.621Z,20.90
2022-09-02T08:31:05.457Z,21.00
2022-09-02T08:32:56.792Z,21.00
2022-09-02T08:34:48.598Z,21.00
2022-09-02T08:36:39.186Z,21.10
2022-09-02T08:38:34.818Z,21.10
2022-09-02T08:40:28.965Z,21.10
2022-09-02T08:42:23.261Z,21.10
2022-09-02T08:44:18.960Z,21.20
2022-09-02T08:46:12.528Z,21.30
2022-09-02T08:48:06.350Z,21.40
2022-09-02T08:50:01.205Z,21.40
2022-09-02T08:51:53.695Z,21.60
2022-09-02T08:53:47.621Z,21.70
2022-09-02T08:55:43.462Z,21.80
2022-09-02T08:57:35.528Z,22.00
2022-09-02T08:59:33.908Z,22.00
2022-09-02T09:01:32.958Z,22.10
2022-09-02T09:03:26.276Z,22.20
2022-09-02T09:05:26.231Z,22.10
2022-09-02T09:07:22.374Z,22.10
2022-09-02T09:09:17.452Z,22.10
2022-09-02T09:11:15.188Z,22.10
2022-09-02T09:13:39.415Z,22.10
2022-09-02T09:15:37.866Z,22.10
2022-09-02T09:17:30.827Z,22.10
2022-09-02T09:19:27.275Z,22.20
2022-09-02T09:21:19.372Z,22.20
2022-09-02T09:23:16.013Z,22.20
2022-09-02T09:25:12.282Z,22.20
2022-09-02T09:27:04.956Z,22.10
2022-09-02T09:28:55.316Z,22.10
2022-09-02T09:30:45.901Z,22.10
2022-09-02T09:32:38.444Z,22.10
2022-09-02T09:34:54.580Z,22.20
2022-09-02T09:36:54.312Z,22.20
2022-09-02T09:38:45.002Z,22.20
2022-09-02T09:40:35.842Z,22.20
2022-09-02T09:42:32.502Z,22.30
2022-09-02T09:44:37.577Z,22.40
2022-09-02T09:46:29.744Z,22.50
2022-09-02T09:48:23.165Z,22.60
2022-09-02T09:50:16.768Z,22.80
2022-09-02T09:52:09.128Z,22.90
2022-09-02T09:54:14.898Z,23.10
2022-09-02T09:56:06.872Z,23.20
2022-09-02T09:58:08.235Z,23.30
2022-09-02T09:59:58.642Z,23.40
2022-09-02T10:01:50.577Z,23.50
2022-09-02T10:03:41.787Z,23.50
2022-09-02T10:05:35.112Z,23.60
2022-09-02T10:07:38.533Z,23.70
2022-09-02T10:09:32.281Z,23.70
2022-09-02T10:11:25.329Z,23.80
2022-09-02T10:13:22.003Z,23.80
2022-09-02T10:15:12.676Z,23.80
2022-09-02T10:17:23.887Z,23.90
2022-09-02T10:19:22.316Z,23.90
2022-09-02T10:21:21.968Z,24.00
2022-09-02T10:23:21.477Z,24.10
2022-09-02T10:25:20.456Z,24.20
2022-09-02T10:27:15.306Z,24.30
2022-09-02T10:29:27.131Z,24.40
2022-09-02T10:31:22.461Z,24.50
2022-09-02T10:33:25.274Z,24.60
2022-09-02T10:35:22.589Z,24.60
2022-09-02T10:37:18.250Z,24.70
2022-09-02T10:39:19.201Z,24.80
2022-09-02T10:41:31.797Z,24.90
2022-09-02T10:43:25.700Z,25.00
2022-09-02T10:45:23.727Z,25.10
2022-09-02T10:47:19.279Z,25.10
2022-09-02T10:49:14.803Z,25.20
2022-09-02T10:51:10.127Z,25.30
2022-09-02T10:53:10.171Z,25.40
2022-09-02T10:55:09.342Z,25.40
2022-09-02T10:57:01.909Z,25.50
2022-09-02T10:58:54.186Z,25.60
2022-09-02T11:00:47.506Z,25.70
2022-09-02T11:02:40.793Z,25.70
2022-09-02T11:04:35.559Z,25.80
2022-09-02T11:06:35.353Z,25.90
2022-09-02T11:08:34.023Z,25.90
2022-09-02T11:10:28.698Z,25.90
2022-09-02T11:12:21.285Z,25.90
2022-09-02T11:14:21.044Z,25.90
2022-09-02T11:16:15.157Z,26.00
2022-09-02T11:18:09.548Z,26.00
2022-09-02T11:20:05.614Z,26.10
2022-09-02T11:22:01.613Z,26.10
2022-09-02T11:23:55.329Z,26.20
2022-09-02T11:25:50.503Z,26.30
2022-09-02T11:27:43.983Z,26.30
2022-09-02T11:29:40.149Z,26.40
2022-09-02T11:31:36.975Z,26.50
2022-09-02T11:33:32.222Z,26.60
2022-09-02T11:35:24.025Z,26.90
2022-09-02T11:37:26.311Z,27.00
2022-09-02T11:39:30.521Z,27.20
2022-09-02T11:41:45.216Z,27.20
2022-09-02T11:43:40.386Z,27.30
2022-09-02T11:45:47.312Z,27.50
2022-09-02T11:48:04.482Z,27.60
2022-09-02T11:50:11.796Z,27.80
2022-09-02T11:52:05.683Z,27.80
2022-09-02T11:53:56.725Z,27.80
2022-09-02T11:55:49.980Z,27.80
2022-09-02T11:57:41.651Z,27.80
2022-09-02T12:00:11.792Z,27.90
2022-09-02T12:02:02.641Z,28.00
2022-09-02T12:04:42.043Z,28.10
2022-09-02T12:06:11.171Z,28.10
2022-09-02T12:08:03.383Z,28.20
2022-09-02T12:09:55.254Z,28.30
2022-09-02T12:11:51.747Z,28.40
2022-09-02T12:13:44.100Z,28.30
2022-09-02T12:15:34.485Z,28.40
2022-09-02T12:17:36.605Z,28.50
2022-09-02T12:19:32.938Z,28.70
2022-09-02T12:21:24.704Z,28.70
2022-09-02T12:23:48.776Z,28.70
2022-09-02T12:25:44.522Z,28.70
2022-09-02T12:27:35.643Z,28.90
2022-09-02T12:29:34.271Z,29.10
2022-09-02T12:31:43.507Z,29.20
2022-09-02T12:33:35.565Z,29.30
2022-09-02T12:35:37.209Z,29.20
2022-09-02T12:37:53.892Z,29.50
2022-09-02T12:39:55.208Z,29.60
2022-09-02T12:41:45.588Z,29.70
2022-09-02T12:43:44.080Z,29.80
2022-09-02T12:45:41.518Z,29.90
2022-09-02T12:47:42.788Z,30.00
2022-09-02T12:49:49.092Z,30.10
2022-09-02T12:51:53.786Z,30.20
2022-09-02T12:53:47.038Z,30.40
2022-09-02T12:55:38.350Z,30.50
2022-09-02T12:57:39.114Z,30.40
2022-09-02T12:59:31.702Z,30.40
2022-09-02T13:01:34.130Z,30.40
2022-09-02T13:03:52.296Z,30.50
2022-09-02T13:05:53.629Z,30.50
2022-09-02T13:08:07.023Z,30.60
2022-09-02T13:10:21.110Z,30.60
2022-09-02T13:12:41.902Z,30.60
2022-09-02T13:14:54.715Z,30.60
2022-09-02T13:20:12.944Z,30.50
2022-09-02T13:22:15.045Z,30.50
2022-09-02T13:24:19.774Z,30.60
2022-09-02T13:26:47.838Z,30.70
2022-09-02T13:29:05.462Z,30.80
2022-09-02T13:31:07.712Z,30.80
2022-09-02T13:32:59.832Z,30.90
2022-09-02T13:34:52.562Z,30.80
2022-09-02T13:36:46.078Z,30.90
2022-09-02T13:38:38.802Z,31.00
2022-09-02T13:40:31.139Z,31.00
2022-09-02T13:42:24.524Z,30.90
2022-09-02T13:44:21.435Z,30.90
2022-09-02T13:46:12.020Z,31.00
2022-09-02T13:48:07.879Z,31.00
2022-09-02T13:49:59.948Z,30.90
2022-09-02T13:51:54.118Z,31.00
2022-09-02T13:54:18.665Z,31.00
2022-09-02T13:55:59.213Z,31.00
2022-09-02T13:57:55.614Z,31.00
2022-09-02T13:59:48.442Z,31.00
2022-09-02T14:01:39.054Z,30.90
2022-09-02T14:03:31.029Z,30.90
2022-09-02T14:05:23.166Z,30.90
2022-09-02T14:07:16.056Z,30.80
2022-09-02T14:09:08.879Z,30.60
2022-09-02T14:11:00.119Z,30.60
2022-09-02T14:12:52.187Z,30.60
2022-09-02T14:14:43.029Z,30.50
2022-09-02T14:16:35.116Z,30.50
2022-09-02T14:18:25.496Z,30.40
2022-09-02T14:20:20.952Z,30.30
2022-09-02T14:22:23.446Z,30.30
2022-09-02T14:24:16.462Z,30.30
2022-09-02T14:26:06.817Z,30.30
2022-09-02T14:27:58.357Z,30.40
2022-09-02T14:29:53.825Z,30.40
2022-09-02T14:31:44.941Z,30.40
2022-09-02T14:33:40.868Z,30.30
2022-09-02T14:35:31.354Z,30.30
2022-09-02T14:37:25.472Z,30.30
2022-09-02T14:39:17.476Z,30.30
2022-09-02T14:41:12.262Z,30.20
2022-09-02T14:43:03.836Z,30.00
2022-09-02T14:44:54.385Z,30.10
2022-09-02T14:46:46.136Z,30.10
2022-09-02T14:48:38.590Z,30.00
2022-09-02T14:50:31.712Z,30.10
2022-09-02T14:52:26.010Z,30.00
2022-09-02T14:54:35.212Z,29.90
2022-09-02T14:56:48.354Z,30.00
2022-09-02T14:58:38.939Z,30.00
2022-09-02T15:00:33.986Z,30.00
2022-09-02T15:02:30.839Z,30.10
2022-09-02T15:04:21.646Z,30.10
2022-09-02T15:06:15.261Z,30.00
2022-09-02T15:08:07.407Z,30.10
2022-09-02T15:09:58.194Z,30.00
2022-09-02T15:11:53.126Z,30.00
2022-09-02T15:13:43.897Z,29.90
2022-09-02T15:15:34.662Z,29.90
2022-09-02T15:17:26.130Z,30.00
2022-09-02T15:19:17.654Z,30.00
2022-09-02T15:21:08.123Z,29.90
2022-09-02T15:22:59.212Z,29.90
2022-09-02T15:24:51.406Z,29.90
2022-09-02T15:26:42.488Z,30.00
2022-09-02T15:28:33.187Z,30.10
2022-09-02T15:30:24.387Z,30.20
2022-09-02T15:32:14.789Z,30.20
2022-09-02T15:34:05.096Z,30.20
2022-09-02T15:35:55.708Z,30.40
2022-09-02T15:37:49.729Z,30.60
2022-09-02T15:39:40.780Z,30.70
2022-09-02T15:41:32.955Z,30.90
2022-09-02T15:43:24.143Z,30.90
2022-09-02T15:45:15.702Z,30.90
2022-09-02T15:47:06.768Z,30.70
2022-09-02T15:49:03.004Z,30.80
2022-09-02T15:50:54.622Z,30.80
2022-09-02T15:52:45.079Z,31.00
2022-09-02T15:54:35.953Z,31.00
2022-09-02T15:56:28.602Z,30.90
2022-09-02T15:58:21.085Z,30.90
2022-09-02T16:00:13.338Z,30.90
2022-09-02T16:02:04.188Z,30.80
2022-09-02T16:03:55.211Z,30.70
2022-09-02T16:05:45.675Z,30.70
2022-09-02T16:07:36.314Z,30.90
2022-09-02T16:09:27.132Z,30.80
2022-09-02T16:11:17.895Z,30.80
2022-09-02T16:13:09.018Z,30.80
2022-09-02T16:15:00.703Z,30.80
2022-09-02T16:16:53.427Z,30.70
2022-09-02T16:18:49.640Z,30.70
2022-09-02T16:20:40.012Z,30.50
2022-09-02T16:22:30.835Z,30.30
2022-09-02T16:24:21.442Z,30.20
2022-09-02T16:26:15.461Z,30.10
2022-09-02T16:28:06.129Z,29.80
2022-09-02T16:29:57.028Z,29.60
2022-09-02T16:32:07.562Z,29.60
2022-09-02T16:34:02.771Z,29.50
2022-09-02T16:35:53.406Z,29.40
2022-09-02T16:37:44.975Z,29.40
2022-09-02T16:39:35.473Z,29.40
2022-09-02T16:41:28.717Z,29.40
2022-09-02T16:43:19.167Z,29.30
2022-09-02T16:45:10.299Z,29.20
2022-09-02T16:47:02.281Z,29.20
2022-09-02T16:48:53.060Z,29.20
2022-09-02T16:50:43.852Z,29.20
2022-09-02T16:52:35.015Z,29.10
2022-09-02T16:54:31.626Z,29.10
2022-09-02T16:56:23.138Z,29.10
2022-09-02T16:58:13.996Z,29.10
2022-09-02T17:00:05.946Z,29.10
2022-09-02T17:01:56.692Z,29.10
2022-09-02T17:03:49.470Z,29.10
2022-09-02T17:05:40.363Z,29.00
2022-09-02T17:07:30.970Z,29.10
2022-09-02T17:09:21.754Z,29.10
2022-09-02T17:11:18.619Z,29.20
2022-09-02T17:13:08.941Z,29.30
2022-09-02T17:14:59.368Z,29.30
2022-09-02T17:16:51.827Z,29.30
2022-09-02T17:18:43.418Z,29.40
2022-09-02T17:20:35.179Z,29.40
2022-09-02T17:22:25.774Z,29.40
2022-09-02T17:24:20.304Z,29.60
2022-09-02T17:26:11.097Z,29.60
2022-09-02T17:28:02.316Z,29.70
2022-09-02T17:29:53.350Z,29.70
2022-09-02T17:31:44.331Z,29.60
2022-09-02T17:33:35.181Z,29.50
2022-09-02T17:35:25.910Z,29.40
2022-09-02T17:37:18.211Z,29.40
2022-09-02T17:39:10.061Z,29.30
2022-09-02T17:41:00.450Z,29.20
2022-09-02T17:42:51.118Z,29.20
2022-09-02T17:44:41.816Z,29.20
2022-09-02T17:46:32.385Z,29.20
2022-09-02T17:48:39.013Z,29.20
2022-09-02T17:50:35.868Z,29.10
2022-09-02T17:52:27.997Z,28.90
2022-09-02T17:54:18.756Z,28.80
2022-09-02T17:56:45.865Z,28.60
2022-09-02T17:58:45.432Z,28.60
2022-09-02T18:00:44.246Z,28.50
2022-09-02T18:03:06.449Z,28.30
2022-09-02T18:05:04.256Z,28.10
2022-09-02T18:06:58.417Z,27.70
2022-09-02T18:08:55.033Z,27.50
2022-09-02T18:10:55.208Z,27.40
2022-09-02T18:12:48.579Z,27.40
2022-09-02T18:14:44.236Z,27.30
2022-09-02T18:16:38.592Z,27.30
2022-09-02T18:18:29.192Z,27.20
2022-09-02T18:20:24.958Z,27.20
2022-09-02T18:22:32.419Z,27.10
2022-09-02T18:24:32.690Z,27.00
2022-09-02T18:26:29.696Z,26.90
2022-09-02T18:28:31.532Z,26.80
2022-09-02T18:30:25.122Z,26.70
2022-09-02T18:32:23.838Z,26.80
2022-09-02T18:34:30.477Z,26.70
2022-09-02T18:36:29.885Z,26.60
2022-09-02T18:38:27.569Z,26.50
2022-09-02T18:40:28.781Z,26.40
2022-09-02T18:42:27.659Z,26.30
2022-09-02T18:44:25.948Z,26.20
2022-09-02T18:46:17.547Z,26.20
2022-09-02T18:48:10.336Z,26.10
2022-09-02T18:50:04.580Z,26.00
2022-09-02T18:51:59.157Z,26.20
2022-09-02T18:53:54.423Z,26.10
2022-09-02T18:55:47.965Z,26.10
2022-09-02T18:57:45.526Z,26.00
2022-09-02T18:59:40.229Z,26.10
2022-09-02T19:01:32.803Z,26.10
2022-09-02T19:03:23.194Z,26.00
2022-09-02T19:05:17.032Z,26.00
2022-09-02T19:07:08.351Z,25.90
2022-09-02T19:09:02.273Z,25.80
2022-09-02T19:10:59.166Z,25.70
2022-09-02T19:12:50.048Z,25.70
2022-09-02T19:14:40.826Z,25.70
2022-09-02T19:16:33.545Z,25.50
2022-09-02T19:18:24.304Z,25.50
2022-09-02T19:20:15.533Z,25.60
2022-09-02T19:22:07.787Z,25.50
2022-09-02T19:23:58.030Z,25.40
2022-09-02T19:25:49.285Z,25.20
2022-09-02T19:27:44.723Z,25.10
2022-09-02T19:29:39.840Z,25.10
2022-09-02T19:31:30.415Z,25.10
2022-09-02T19:33:20.782Z,25.00
2022-09-02T19:35:13.569Z,25.00
2022-09-02T19:37:04.546Z,25.10
2022-09-02T19:38:55.545Z,25.10
2022-09-02T19:40:46.580Z,25.10
2022-09-02T19:42:37.201Z,25.10
2022-09-02T19:44:29.104Z,25.10
2022-09-02T19:46:55.728Z,25.00
2022-09-02T19:48:32.948Z,24.90
2022-09-02T19:50:23.990Z,24.90
2022-09-02T19:52:15.373Z,24.90
2022-09-02T19:54:06.492Z,24.90
2022-09-02T19:55:57.791Z,24.90
2022-09-02T19:57:48.472Z,24.70
2022-09-02T19:59:41.485Z,24.70
2022-09-02T20:01:31.955Z,24.70
2022-09-02T20:03:22.815Z,24.70
2022-09-02T20:05:14.021Z,24.70
2022-09-02T20:07:04.488Z,24.60
2022-09-02T20:08:55.038Z,24.60
2022-09-02T20:10:52.940Z,24.60
2022-09-02T20:12:44.029Z,24.60
2022-09-02T20:14:35.919Z,24.60
2022-09-02T20:16:28.128Z,24.60
2022-09-02T20:18:20.093Z,24.50
2022-09-02T20:20:15.434Z,24.50
2022-09-02T20:22:05.886Z,24.50
2022-09-02T20:23:59.141Z,24.50
2022-09-02T20:26:01.835Z,24.60
2022-09-02T20:27:55.806Z,24.40
2022-09-02T20:30:04.622Z,24.40
2022-09-02T20:32:04.772Z,24.30
2022-09-02T20:34:01.039Z,24.30
2022-09-02T20:36:04.369Z,24.30
2022-09-02T20:38:03.960Z,24.40
2022-09-02T20:40:20.802Z,24.40
2022-09-02T20:42:28.191Z,24.30
2022-09-02T20:44:28.871Z,24.30
2022-09-02T20:46:30.784Z,24.20
2022-09-02T20:48:31.876Z,24.20
2022-09-02T20:50:37.659Z,24.20
2022-09-02T20:52:35.441Z,24.10
2022-09-02T20:54:35.408Z,24.10
2022-09-02T20:56:30.436Z,24.00
2022-09-02T20:58:31.932Z,23.90
2022-09-02T21:00:22.318Z,23.90
2022-09-02T21:02:14.827Z,24.00
2022-09-02T21:04:16.509Z,24.00
2022-09-02T21:06:10.065Z,23.90
2022-09-02T21:08:03.020Z,23.90
2022-09-02T21:09:58.512Z,23.80
2022-09-02T21:11:55.333Z,23.80
2022-09-02T21:13:49.152Z,23.70
2022-09-02T21:15:45.108Z,23.60
2022-09-02T21:17:39.119Z,23.60
2022-09-02T21:19:35.310Z,23.60
2022-09-02T21:21:30.297Z,23.50
2022-09-02T21:23:25.300Z,23.60
2022-09-02T21:25:20.165Z,23.50
2022-09-02T21:27:16.589Z,23.50
2022-09-02T21:29:13.434Z,23.40
2022-09-02T21:31:08.143Z,23.40
2022-09-02T21:33:00.250Z,23.50
2022-09-02T21:34:55.158Z,23.40
2022-09-02T21:36:46.826Z,23.30
2022-09-02T21:38:40.344Z,23.30
2022-09-02T21:40:46.099Z,23.30
2022-09-02T21:42:45.494Z,23.20
2022-09-02T21:44:46.366Z,23.20
2022-09-02T21:46:45.013Z,23.20
2022-09-02T21:48:44.539Z,23.10
2022-09-02T21:50:44.257Z,23.10
2022-09-02T21:52:44.399Z,23.10
2022-09-02T21:54:52.703Z,23.10
2022-09-02T21:56:52.584Z,23.10
2022-09-02T21:58:56.942Z,23.10
2022-09-02T22:00:51.791Z,23.10
2022-09-02T22:02:49.972Z,23.10
2022-09-02T22:04:52.028Z,23.10
2022-09-02T22:06:46.347Z,23.00
2022-09-02T22:08:40.278Z,22.90
2022-09-02T22:10:33.957Z,22.90
2022-09-02T22:12:24.536Z,22.80
2022-09-02T22:14:19.175Z,22.80
2022-09-02T22:16:18.186Z,22.80
2022-09-02T22:18:15.342Z,22.80
2022-09-02T22:20:07.354Z,22.70
2022-09-02T22:22:06.633Z,22.70
2022-09-02T22:23:57.819Z,22.70
2022-09-02T22:25:49.651Z,22.70
2022-09-02T22:27:44.704Z,22.70
2022-09-02T22:29:39.623Z,22.70
2022-09-02T22:31:33.032Z,22.70
2022-09-02T22:33:28.121Z,22.70
2022-09-02T22:35:26.844Z,22.70
2022-09-02T22:37:23.828Z,22.60
2022-09-02T22:39:16.940Z,22.60
2022-09-02T22:41:15.009Z,22.50
2022-09-02T22:43:08.643Z,22.40
2022-09-02T22:45:05.310Z,22.30
2022-09-02T22:47:02.360Z,22.30
2022-09-02T22:48:56.080Z,22.30
2022-09-02T22:50:49.756Z,22.20
2022-09-02T22:52:44.893Z,22.20
2022-09-02T22:54:36.270Z,22.10
2022-09-02T22:56:36.360Z,22.10
2022-09-02T22:58:53.799Z,22.20
2022-09-02T23:00:48.700Z,22.20
2022-09-02T23:02:44.437Z,22.10
2022-09-02T23:04:50.718Z,22.10
2022-09-02T23:06:41.084Z,22.00
2022-09-02T23:08:33.437Z,22.00
2022-09-02T23:10:24.464Z,22.00
2022-09-02T23:12:22.665Z,22.00
2022-09-02T23:14:20.203Z,22.00
2022-09-02T23:16:18.783Z,22.00
2022-09-02T23:18:14.529Z,22.00
2022-09-02T23:20:14.062Z,22.00
2022-09-02T23:22:10.837Z,21.90
2022-09-02T23:24:09.804Z,22.00
2022-09-02T23:26:09.797Z,21.90
2022-09-02T23:28:06.664Z,21.90
2022-09-02T23:29:57.991Z,21.80
2022-09-02T23:32:26.012Z,21.80
2022-09-02T23:34:25.087Z,21.80
2022-09-02T23:36:19.371Z,21.80
2022-09-02T23:38:23.737Z,21.80
2022-09-02T23:40:22.807Z,21.90
2022-09-02T23:42:13.558Z,21.80
2022-09-02T23:44:04.620Z,21.80
2022-09-02T23:45:58.687Z,21.70
2022-09-02T23:48:10.822Z,21.60
2022-09-02T23:50:09.414Z,21.60
2022-09-02T23:52:08.189Z,21.60
2022-09-02T23:54:13.423Z,21.60
2022-09-02T23:56:14.564Z,21.60
2022-09-02T23:58:19.152Z,21.50
